sensor_id;sensor_type;location;lat;lon;timestamp;temperature;humidity
35700;DHT22;21818;51.078;12.108;2022-11-23T00:00:57;9.50;83.20
35700;DHT22;21818;51.078;12.108;2022-11-23T00:03:22;9.50;83.30
35700;DHT22;21818;51.078;12.108;2022-11-23T00:05:48;9.40;83.40
35700;DHT22;21818;51.078;12.108;2022-11-23T00:08:14;9.40;84.00
35700;DHT22;21818;51.078;12.108;2022-11-23T00:10:39;9.40;83.50
35700;DHT22;21818;51.078;12.108;2022-11-23T00:13:05;9.50;83.50
35700;DHT22;21818;51.078;12.108;2022-11-23T00:15:30;9.50;83.60
35700;DHT22;21818;51.078;12.108;2022-11-23T00:17:57;9.50;83.60
35700;DHT22;21818;51.078;12.108;2022-11-23T00:20:24;9.60;83.60
35700;DHT22;21818;51.078;12.108;2022-11-23T00:22:50;9.60;83.60
35700;DHT22;21818;51.078;12.108;2022-11-23T00:25:15;9.60;83.70
35700;DHT22;21818;51.078;12.108;2022-11-23T00:27:41;9.60;83.60
35700;DHT22;21818;51.078;12.108;2022-11-23T00:30:07;9.60;83.90
35700;DHT22;21818;51.078;12.108;2022-11-23T00:32:33;9.60;83.90
35700;DHT22;21818;51.078;12.108;2022-11-23T00:34:58;9.60;83.90
35700;DHT22;21818;51.078;12.108;2022-11-23T00:37:24;9.60;83.90
35700;DHT22;21818;51.078;12.108;2022-11-23T00:39:50;9.60;84.00
35700;DHT22;21818;51.078;12.108;2022-11-23T00:42:15;9.60;84.10
35700;DHT22;21818;51.078;12.108;2022-11-23T00:44:41;9.60;84.30
35700;DHT22;21818;51.078;12.108;2022-11-23T00:47:06;9.60;84.30
35700;DHT22;21818;51.078;12.108;2022-11-23T00:49:32;9.60;84.30
35700;DHT22;21818;51.078;12.108;2022-11-23T00:51:57;9.60;84.30
35700;DHT22;21818;51.078;12.108;2022-11-23T00:54:23;9.60;84.60
35700;DHT22;21818;51.078;12.108;2022-11-23T00:56:48;9.60;84.50
35700;DHT22;21818;51.078;12.108;2022-11-23T00:59:14;9.60;84.40
35700;DHT22;21818;51.078;12.108;2022-11-23T01:01:40;9.60;84.60
35700;DHT22;21818;51.078;12.108;2022-11-23T01:04:07;9.60;84.70
35700;DHT22;21818;51.078;12.108;2022-11-23T01:06:34;9.60;84.40
35700;DHT22;21818;51.078;12.108;2022-11-23T01:09:16;9.60;84.70
35700;DHT22;21818;51.078;12.108;2022-11-23T01:11:43;9.60;84.70
35700;DHT22;21818;51.078;12.108;2022-11-23T01:14:09;9.60;84.70
35700;DHT22;21818;51.078;12.108;2022-11-23T01:16:37;9.60;84.80
35700;DHT22;21818;51.078;12.108;2022-11-23T01:19:06;9.60;84.70
35700;DHT22;21818;51.078;12.108;2022-11-23T01:21:34;9.60;84.80
35700;DHT22;21818;51.078;12.108;2022-11-23T01:24:02;9.70;85.00
35700;DHT22;21818;51.078;12.108;2022-11-23T01:26:28;9.70;84.70
35700;DHT22;21818;51.078;12.108;2022-11-23T01:28:54;9.80;84.80
35700;DHT22;21818;51.078;12.108;2022-11-23T01:31:21;9.80;84.70
35700;DHT22;21818;51.078;12.108;2022-11-23T01:33:55;9.80;84.70
35700;DHT22;21818;51.078;12.108;2022-11-23T01:36:23;9.70;84.70
35700;DHT22;21818;51.078;12.108;2022-11-23T01:38:50;9.70;84.80
35700;DHT22;21818;51.078;12.108;2022-11-23T01:41:19;9.70;84.90
35700;DHT22;21818;51.078;12.108;2022-11-23T01:43:45;9.70;84.80
35700;DHT22;21818;51.078;12.108;2022-11-23T01:46:11;9.80;84.90
35700;DHT22;21818;51.078;12.108;2022-11-23T01:48:39;9.80;84.90
35700;DHT22;21818;51.078;12.108;2022-11-23T01:51:12;9.80;84.90
35700;DHT22;21818;51.078;12.108;2022-11-23T01:53:38;9.70;85.00
35700;DHT22;21818;51.078;12.108;2022-11-23T01:56:06;9.70;85.20
35700;DHT22;21818;51.078;12.108;2022-11-23T01:58:36;9.70;84.80
35700;DHT22;21818;51.078;12.108;2022-11-23T02:01:04;9.70;84.90
35700;DHT22;21818;51.078;12.108;2022-11-23T02:03:31;9.70;85.00
35700;DHT22;21818;51.078;12.108;2022-11-23T02:06:02;9.70;84.90
35700;DHT22;21818;51.078;12.108;2022-11-23T02:08:28;9.70;84.90
35700;DHT22;21818;51.078;12.108;2022-11-23T02:10:55;9.60;85.00
35700;DHT22;21818;51.078;12.108;2022-11-23T02:13:22;9.60;85.00
35700;DHT22;21818;51.078;12.108;2022-11-23T02:15:49;9.60;85.10
35700;DHT22;21818;51.078;12.108;2022-11-23T02:18:20;9.50;85.10
35700;DHT22;21818;51.078;12.108;2022-11-23T02:20:47;9.50;85.10
35700;DHT22;21818;51.078;12.108;2022-11-23T02:26:10;9.40;85.20
35700;DHT22;21818;51.078;12.108;2022-11-23T02:28:51;9.50;85.20
35700;DHT22;21818;51.078;12.108;2022-11-23T02:31:17;9.50;85.70
35700;DHT22;21818;51.078;12.108;2022-11-23T02:33:42;9.40;85.30
35700;DHT22;21818;51.078;12.108;2022-11-23T02:39:09;9.30;85.50
35700;DHT22;21818;51.078;12.108;2022-11-23T02:41:47;9.20;85.50
35700;DHT22;21818;51.078;12.108;2022-11-23T02:47:06;9.20;85.70
35700;DHT22;21818;51.078;12.108;2022-11-23T02:49:33;9.20;85.80
35700;DHT22;21818;51.078;12.108;2022-11-23T02:51:58;9.20;85.90
35700;DHT22;21818;51.078;12.108;2022-11-23T02:54:24;9.20;85.70
35700;DHT22;21818;51.078;12.108;2022-11-23T02:56:49;9.30;85.90
35700;DHT22;21818;51.078;12.108;2022-11-23T02:59:15;9.30;86.00
35700;DHT22;21818;51.078;12.108;2022-11-23T03:01:41;9.40;85.90
35700;DHT22;21818;51.078;12.108;2022-11-23T03:04:07;9.40;85.90
35700;DHT22;21818;51.078;12.108;2022-11-23T03:06:32;9.40;85.90
35700;DHT22;21818;51.078;12.108;2022-11-23T03:08:58;9.40;85.80
35700;DHT22;21818;51.078;12.108;2022-11-23T03:11:24;9.50;85.80
35700;DHT22;21818;51.078;12.108;2022-11-23T03:13:49;9.50;85.70
35700;DHT22;21818;51.078;12.108;2022-11-23T03:16:15;9.50;85.70
35700;DHT22;21818;51.078;12.108;2022-11-23T03:18:41;9.60;85.60
35700;DHT22;21818;51.078;12.108;2022-11-23T03:21:07;9.50;85.70
35700;DHT22;21818;51.078;12.108;2022-11-23T03:23:36;9.50;85.90
35700;DHT22;21818;51.078;12.108;2022-11-23T03:26:03;9.50;85.90
35700;DHT22;21818;51.078;12.108;2022-11-23T03:28:28;9.50;85.90
35700;DHT22;21818;51.078;12.108;2022-11-23T03:30:54;9.50;85.80
35700;DHT22;21818;51.078;12.108;2022-11-23T03:33:20;9.50;85.90
35700;DHT22;21818;51.078;12.108;2022-11-23T03:35:46;9.40;85.80
35700;DHT22;21818;51.078;12.108;2022-11-23T03:38:12;9.40;85.90
35700;DHT22;21818;51.078;12.108;2022-11-23T03:40:38;9.40;86.00
35700;DHT22;21818;51.078;12.108;2022-11-23T03:43:04;9.40;85.90
35700;DHT22;21818;51.078;12.108;2022-11-23T03:45:29;9.40;86.40
35700;DHT22;21818;51.078;12.108;2022-11-23T03:47:55;9.30;85.90
35700;DHT22;21818;51.078;12.108;2022-11-23T03:50:21;9.30;86.00
35700;DHT22;21818;51.078;12.108;2022-11-23T03:52:49;9.30;86.20
35700;DHT22;21818;51.078;12.108;2022-11-23T03:55:15;9.30;86.10
35700;DHT22;21818;51.078;12.108;2022-11-23T03:57:41;9.30;86.20
35700;DHT22;21818;51.078;12.108;2022-11-23T04:00:08;9.20;86.10
35700;DHT22;21818;51.078;12.108;2022-11-23T04:02:34;9.30;86.90
35700;DHT22;21818;51.078;12.108;2022-11-23T04:04:59;9.20;86.20
35700;DHT22;21818;51.078;12.108;2022-11-23T04:07:26;9.20;86.40
35700;DHT22;21818;51.078;12.108;2022-11-23T04:09:52;9.20;86.50
35700;DHT22;21818;51.078;12.108;2022-11-23T04:12:17;9.20;86.70
35700;DHT22;21818;51.078;12.108;2022-11-23T04:14:43;9.20;86.60
35700;DHT22;21818;51.078;12.108;2022-11-23T04:17:09;9.20;86.70
35700;DHT22;21818;51.078;12.108;2022-11-23T04:19:34;9.30;86.90
35700;DHT22;21818;51.078;12.108;2022-11-23T04:22:00;9.20;86.80
35700;DHT22;21818;51.078;12.108;2022-11-23T04:24:25;9.40;86.70
35700;DHT22;21818;51.078;12.108;2022-11-23T04:26:51;9.40;86.60
35700;DHT22;21818;51.078;12.108;2022-11-23T04:29:17;9.50;86.60
35700;DHT22;21818;51.078;12.108;2022-11-23T04:31:42;9.60;86.40
35700;DHT22;21818;51.078;12.108;2022-11-23T04:34:08;9.60;86.40
35700;DHT22;21818;51.078;12.108;2022-11-23T04:36:33;9.60;86.40
35700;DHT22;21818;51.078;12.108;2022-11-23T04:38:59;9.50;86.50
35700;DHT22;21818;51.078;12.108;2022-11-23T04:41:25;9.50;86.70
35700;DHT22;21818;51.078;12.108;2022-11-23T04:43:50;9.50;86.80
35700;DHT22;21818;51.078;12.108;2022-11-23T04:46:16;9.40;86.80
35700;DHT22;21818;51.078;12.108;2022-11-23T04:48:42;9.40;87.00
35700;DHT22;21818;51.078;12.108;2022-11-23T04:51:08;9.40;86.90
35700;DHT22;21818;51.078;12.108;2022-11-23T04:53:34;9.40;87.00
35700;DHT22;21818;51.078;12.108;2022-11-23T04:55:59;9.40;87.00
35700;DHT22;21818;51.078;12.108;2022-11-23T04:58:25;9.40;87.00
35700;DHT22;21818;51.078;12.108;2022-11-23T05:00:51;9.40;87.10
35700;DHT22;21818;51.078;12.108;2022-11-23T05:03:16;9.30;87.30
35700;DHT22;21818;51.078;12.108;2022-11-23T05:05:42;9.40;87.50
35700;DHT22;21818;51.078;12.108;2022-11-23T05:08:08;9.40;87.20
35700;DHT22;21818;51.078;12.108;2022-11-23T05:10:35;9.40;87.20
35700;DHT22;21818;51.078;12.108;2022-11-23T05:13:01;9.40;87.40
35700;DHT22;21818;51.078;12.108;2022-11-23T05:15:27;9.50;87.30
35700;DHT22;21818;51.078;12.108;2022-11-23T05:17:52;9.50;87.30
35700;DHT22;21818;51.078;12.108;2022-11-23T05:20:18;9.60;87.00
35700;DHT22;21818;51.078;12.108;2022-11-23T05:22:44;9.60;87.00
35700;DHT22;21818;51.078;12.108;2022-11-23T05:25:09;9.60;86.90
35700;DHT22;21818;51.078;12.108;2022-11-23T05:27:35;9.70;87.00
35700;DHT22;21818;51.078;12.108;2022-11-23T05:30:01;9.70;87.40
35700;DHT22;21818;51.078;12.108;2022-11-23T05:32:27;9.70;86.80
35700;DHT22;21818;51.078;12.108;2022-11-23T05:34:53;9.70;86.80
35700;DHT22;21818;51.078;12.108;2022-11-23T05:37:18;9.60;86.90
35700;DHT22;21818;51.078;12.108;2022-11-23T05:39:44;9.60;87.00
35700;DHT22;21818;51.078;12.108;2022-11-23T05:42:09;9.60;87.00
35700;DHT22;21818;51.078;12.108;2022-11-23T05:44:35;9.60;87.00
35700;DHT22;21818;51.078;12.108;2022-11-23T05:47:01;9.60;87.10
35700;DHT22;21818;51.078;12.108;2022-11-23T05:49:26;9.60;87.20
35700;DHT22;21818;51.078;12.108;2022-11-23T05:51:52;9.60;87.10
35700;DHT22;21818;51.078;12.108;2022-11-23T05:54:18;9.60;87.00
35700;DHT22;21818;51.078;12.108;2022-11-23T05:56:44;9.60;87.00
35700;DHT22;21818;51.078;12.108;2022-11-23T05:59:10;9.50;87.20
35700;DHT22;21818;51.078;12.108;2022-11-23T06:01:36;9.60;87.20
35700;DHT22;21818;51.078;12.108;2022-11-23T06:04:02;9.60;87.20
35700;DHT22;21818;51.078;12.108;2022-11-23T06:06:27;9.60;87.00
35700;DHT22;21818;51.078;12.108;2022-11-23T06:08:53;9.70;87.00
35700;DHT22;21818;51.078;12.108;2022-11-23T06:11:18;9.70;86.90
35700;DHT22;21818;51.078;12.108;2022-11-23T06:13:47;9.70;86.70
35700;DHT22;21818;51.078;12.108;2022-11-23T06:16:13;9.70;86.80
35700;DHT22;21818;51.078;12.108;2022-11-23T06:18:39;9.70;86.80
35700;DHT22;21818;51.078;12.108;2022-11-23T06:21:05;9.70;86.80
35700;DHT22;21818;51.078;12.108;2022-11-23T06:23:30;9.60;86.80
35700;DHT22;21818;51.078;12.108;2022-11-23T06:25:59;9.70;86.80
35700;DHT22;21818;51.078;12.108;2022-11-23T06:28:24;9.60;86.70
35700;DHT22;21818;51.078;12.108;2022-11-23T06:30:51;9.70;86.80
35700;DHT22;21818;51.078;12.108;2022-11-23T06:33:17;9.60;86.80
35700;DHT22;21818;51.078;12.108;2022-11-23T06:35:54;9.60;86.70
35700;DHT22;21818;51.078;12.108;2022-11-23T06:38:20;9.70;86.70
35700;DHT22;21818;51.078;12.108;2022-11-23T06:40:46;9.60;86.70
35700;DHT22;21818;51.078;12.108;2022-11-23T06:43:11;9.60;86.80
35700;DHT22;21818;51.078;12.108;2022-11-23T06:45:37;9.60;86.70
35700;DHT22;21818;51.078;12.108;2022-11-23T06:48:03;9.60;86.80
35700;DHT22;21818;51.078;12.108;2022-11-23T06:50:28;9.60;86.90
35700;DHT22;21818;51.078;12.108;2022-11-23T06:52:55;9.70;86.80
35700;DHT22;21818;51.078;12.108;2022-11-23T06:55:21;9.70;86.60
35700;DHT22;21818;51.078;12.108;2022-11-23T06:57:47;9.80;86.50
35700;DHT22;21818;51.078;12.108;2022-11-23T07:00:13;9.80;86.50
35700;DHT22;21818;51.078;12.108;2022-11-23T07:02:39;9.80;86.50
35700;DHT22;21818;51.078;12.108;2022-11-23T07:05:05;9.80;86.40
35700;DHT22;21818;51.078;12.108;2022-11-23T07:07:31;9.80;86.40
35700;DHT22;21818;51.078;12.108;2022-11-23T07:09:56;9.70;86.40
35700;DHT22;21818;51.078;12.108;2022-11-23T07:12:22;9.70;86.70
35700;DHT22;21818;51.078;12.108;2022-11-23T07:14:48;10.10;85.90
35700;DHT22;21818;51.078;12.108;2022-11-23T07:17:13;10.50;84.90
35700;DHT22;21818;51.078;12.108;2022-11-23T07:19:39;10.70;84.30
35700;DHT22;21818;51.078;12.108;2022-11-23T07:22:04;10.90;83.80
35700;DHT22;21818;51.078;12.108;2022-11-23T07:24:30;11.00;83.60
35700;DHT22;21818;51.078;12.108;2022-11-23T07:26:56;11.00;83.30
35700;DHT22;21818;51.078;12.108;2022-11-23T07:29:21;11.10;83.20
35700;DHT22;21818;51.078;12.108;2022-11-23T07:31:47;11.20;83.10
35700;DHT22;21818;51.078;12.108;2022-11-23T07:34:13;11.20;82.90
35700;DHT22;21818;51.078;12.108;2022-11-23T07:36:38;11.30;82.90
35700;DHT22;21818;51.078;12.108;2022-11-23T07:39:04;11.30;82.80
35700;DHT22;21818;51.078;12.108;2022-11-23T07:41:29;11.40;82.70
35700;DHT22;21818;51.078;12.108;2022-11-23T07:43:55;11.40;82.60
35700;DHT22;21818;51.078;12.108;2022-11-23T07:46:21;11.40;82.50
35700;DHT22;21818;51.078;12.108;2022-11-23T07:48:47;11.50;82.40
35700;DHT22;21818;51.078;12.108;2022-11-23T07:51:12;11.50;82.40
35700;DHT22;21818;51.078;12.108;2022-11-23T07:53:38;11.50;82.30
35700;DHT22;21818;51.078;12.108;2022-11-23T07:56:04;11.50;82.20
35700;DHT22;21818;51.078;12.108;2022-11-23T07:58:29;11.50;82.10
35700;DHT22;21818;51.078;12.108;2022-11-23T08:00:57;11.50;82.00
35700;DHT22;21818;51.078;12.108;2022-11-23T08:03:23;11.60;82.50
35700;DHT22;21818;51.078;12.108;2022-11-23T08:05:48;11.60;81.90
35700;DHT22;21818;51.078;12.108;2022-11-23T08:08:14;11.60;81.80
35700;DHT22;21818;51.078;12.108;2022-11-23T08:10:40;11.60;81.80
35700;DHT22;21818;51.078;12.108;2022-11-23T08:13:06;11.60;81.70
35700;DHT22;21818;51.078;12.108;2022-11-23T08:15:32;11.70;81.70
35700;DHT22;21818;51.078;12.108;2022-11-23T08:17:59;11.70;81.90
35700;DHT22;21818;51.078;12.108;2022-11-23T08:20:27;11.70;81.60
35700;DHT22;21818;51.078;12.108;2022-11-23T08:22:52;11.70;81.50
35700;DHT22;21818;51.078;12.108;2022-11-23T08:25:24;11.70;81.40
35700;DHT22;21818;51.078;12.108;2022-11-23T08:28:00;11.70;81.90
35700;DHT22;21818;51.078;12.108;2022-11-23T08:30:28;11.70;81.30
35700;DHT22;21818;51.078;12.108;2022-11-23T08:32:53;11.80;81.30
35700;DHT22;21818;51.078;12.108;2022-11-23T08:35:20;11.80;81.30
35700;DHT22;21818;51.078;12.108;2022-11-23T08:37:45;11.80;81.20
35700;DHT22;21818;51.078;12.108;2022-11-23T08:40:12;11.80;81.10
35700;DHT22;21818;51.078;12.108;2022-11-23T08:42:38;11.80;81.10
35700;DHT22;21818;51.078;12.108;2022-11-23T08:45:04;11.80;81.00
35700;DHT22;21818;51.078;12.108;2022-11-23T08:47:31;11.90;81.00
35700;DHT22;21818;51.078;12.108;2022-11-23T08:49:58;11.90;80.90
35700;DHT22;21818;51.078;12.108;2022-11-23T08:52:24;11.90;80.90
35700;DHT22;21818;51.078;12.108;2022-11-23T08:54:50;11.90;80.80
35700;DHT22;21818;51.078;12.108;2022-11-23T08:57:16;11.90;80.70
35700;DHT22;21818;51.078;12.108;2022-11-23T08:59:41;12.00;80.70
35700;DHT22;21818;51.078;12.108;2022-11-23T09:02:11;12.00;80.60
35700;DHT22;21818;51.078;12.108;2022-11-23T09:04:38;12.00;80.50
35700;DHT22;21818;51.078;12.108;2022-11-23T09:07:03;12.00;80.40
35700;DHT22;21818;51.078;12.108;2022-11-23T09:09:29;12.00;80.40
35700;DHT22;21818;51.078;12.108;2022-11-23T09:11:54;12.00;80.40
35700;DHT22;21818;51.078;12.108;2022-11-23T09:14:20;12.00;80.30
35700;DHT22;21818;51.078;12.108;2022-11-23T09:16:46;12.10;80.30
35700;DHT22;21818;51.078;12.108;2022-11-23T09:19:13;12.10;80.20
35700;DHT22;21818;51.078;12.108;2022-11-23T09:21:39;12.10;80.20
35700;DHT22;21818;51.078;12.108;2022-11-23T09:24:06;12.10;80.10
35700;DHT22;21818;51.078;12.108;2022-11-23T09:26:32;12.10;80.00
35700;DHT22;21818;51.078;12.108;2022-11-23T09:28:59;12.10;80.00
35700;DHT22;21818;51.078;12.108;2022-11-23T09:31:24;12.10;79.90
35700;DHT22;21818;51.078;12.108;2022-11-23T09:33:53;12.20;79.80
35700;DHT22;21818;51.078;12.108;2022-11-23T09:36:19;12.20;79.80
35700;DHT22;21818;51.078;12.108;2022-11-23T09:38:44;12.20;79.80
35700;DHT22;21818;51.078;12.108;2022-11-23T09:41:25;12.20;79.80
35700;DHT22;21818;51.078;12.108;2022-11-23T09:44:04;12.20;79.70
35700;DHT22;21818;51.078;12.108;2022-11-23T09:46:58;12.20;79.70
35700;DHT22;21818;51.078;12.108;2022-11-23T09:52:33;12.20;79.70
35700;DHT22;21818;51.078;12.108;2022-11-23T09:55:08;12.20;79.70
35700;DHT22;21818;51.078;12.108;2022-11-23T09:57:38;12.20;79.60
35700;DHT22;21818;51.078;12.108;2022-11-23T10:00:19;12.20;79.60
35700;DHT22;21818;51.078;12.108;2022-11-23T10:02:46;12.30;79.50
35700;DHT22;21818;51.078;12.108;2022-11-23T10:05:21;12.30;79.40
35700;DHT22;21818;51.078;12.108;2022-11-23T10:08:18;12.30;79.40
35700;DHT22;21818;51.078;12.108;2022-11-23T10:13:42;12.30;79.30
35700;DHT22;21818;51.078;12.108;2022-11-23T10:19:02;12.40;79.20
35700;DHT22;21818;51.078;12.108;2022-11-23T10:24:17;12.40;79.00
35700;DHT22;21818;51.078;12.108;2022-11-23T10:26:47;12.40;79.20
35700;DHT22;21818;51.078;12.108;2022-11-23T10:29:34;12.50;79.00
35700;DHT22;21818;51.078;12.108;2022-11-23T10:32:00;12.50;78.90
35700;DHT22;21818;51.078;12.108;2022-11-23T10:37:01;12.50;78.70
35700;DHT22;21818;51.078;12.108;2022-11-23T10:39:27;12.60;78.70
35700;DHT22;21818;51.078;12.108;2022-11-23T10:41:56;12.60;78.70
35700;DHT22;21818;51.078;12.108;2022-11-23T10:44:31;12.60;78.60
35700;DHT22;21818;51.078;12.108;2022-11-23T10:46:59;12.60;78.50
35700;DHT22;21818;51.078;12.108;2022-11-23T10:49:27;12.70;78.40
35700;DHT22;21818;51.078;12.108;2022-11-23T10:52:05;12.70;78.40
35700;DHT22;21818;51.078;12.108;2022-11-23T10:54:52;12.70;78.30
35700;DHT22;21818;51.078;12.108;2022-11-23T11:00:17;12.80;78.20
35700;DHT22;21818;51.078;12.108;2022-11-23T11:02:47;12.80;78.10
35700;DHT22;21818;51.078;12.108;2022-11-23T11:05:24;12.80;78.10
35700;DHT22;21818;51.078;12.108;2022-11-23T11:07:51;12.80;78.10
35700;DHT22;21818;51.078;12.108;2022-11-23T11:13:23;12.80;78.20
35700;DHT22;21818;51.078;12.108;2022-11-23T11:15:56;12.80;78.20
35700;DHT22;21818;51.078;12.108;2022-11-23T11:18:25;12.90;78.20
35700;DHT22;21818;51.078;12.108;2022-11-23T11:21:00;13.00;78.10
35700;DHT22;21818;51.078;12.108;2022-11-23T11:23:28;13.00;78.00
35700;DHT22;21818;51.078;12.108;2022-11-23T11:26:14;13.00;78.00
35700;DHT22;21818;51.078;12.108;2022-11-23T11:28:42;13.10;77.90
35700;DHT22;21818;51.078;12.108;2022-11-23T11:34:57;13.00;78.00
35700;DHT22;21818;51.078;12.108;2022-11-23T11:37:29;13.00;78.00
35700;DHT22;21818;51.078;12.108;2022-11-23T11:42:53;13.00;78.00
35700;DHT22;21818;51.078;12.108;2022-11-23T11:45:31;13.00;77.90
35700;DHT22;21818;51.078;12.108;2022-11-23T11:48:15;13.10;77.80
35700;DHT22;21818;51.078;12.108;2022-11-23T11:50:54;13.10;77.70
35700;DHT22;21818;51.078;12.108;2022-11-23T11:54:00;13.10;77.70
35700;DHT22;21818;51.078;12.108;2022-11-23T11:56:35;13.20;77.50
35700;DHT22;21818;51.078;12.108;2022-11-23T11:59:27;13.20;77.50
35700;DHT22;21818;51.078;12.108;2022-11-23T12:10:58;13.40;76.80
35700;DHT22;21818;51.078;12.108;2022-11-23T12:13:29;13.40;76.80
35700;DHT22;21818;51.078;12.108;2022-11-23T12:18:33;13.60;76.60
35700;DHT22;21818;51.078;12.108;2022-11-23T12:26:20;13.80;76.20
35700;DHT22;21818;51.078;12.108;2022-11-23T12:34:41;14.10;75.20
35700;DHT22;21818;51.078;12.108;2022-11-23T12:37:27;14.30;74.50
35700;DHT22;21818;51.078;12.108;2022-11-23T12:40:21;14.40;74.50
35700;DHT22;21818;51.078;12.108;2022-11-23T12:42:59;14.50;74.00
35700;DHT22;21818;51.078;12.108;2022-11-23T12:45:54;14.60;74.00
35700;DHT22;21818;51.078;12.108;2022-11-23T12:51:26;14.90;73.40
35700;DHT22;21818;51.078;12.108;2022-11-23T12:54:11;14.70;73.10
35700;DHT22;21818;51.078;12.108;2022-11-23T12:59:11;14.50;73.90
35700;DHT22;21818;51.078;12.108;2022-11-23T13:01:41;14.50;73.20
35700;DHT22;21818;51.078;12.108;2022-11-23T13:12:18;15.30;72.20
35700;DHT22;21818;51.078;12.108;2022-11-23T13:23:22;15.60;71.40
35700;DHT22;21818;51.078;12.108;2022-11-23T13:26:11;15.70;71.20
35700;DHT22;21818;51.078;12.108;2022-11-23T13:28:36;15.80;70.40
35700;DHT22;21818;51.078;12.108;2022-11-23T13:33:46;15.90;70.40
35700;DHT22;21818;51.078;12.108;2022-11-23T13:36:33;15.90;70.40
35700;DHT22;21818;51.078;12.108;2022-11-23T13:39:01;16.00;69.90
35700;DHT22;21818;51.078;12.108;2022-11-23T13:46:59;16.10;69.50
35700;DHT22;21818;51.078;12.108;2022-11-23T13:49:34;16.10;69.50
35700;DHT22;21818;51.078;12.108;2022-11-23T13:57:39;16.10;69.40
35700;DHT22;21818;51.078;12.108;2022-11-23T14:12:03;16.10;69.10
35700;DHT22;21818;51.078;12.108;2022-11-23T14:14:50;16.10;69.10
35700;DHT22;21818;51.078;12.108;2022-11-23T14:23:20;16.10;68.40
35700;DHT22;21818;51.078;12.108;2022-11-23T14:26:13;16.10;68.50
35700;DHT22;21818;51.078;12.108;2022-11-23T14:34:22;15.80;69.00
35700;DHT22;21818;51.078;12.108;2022-11-23T14:36:59;15.80;69.20
35700;DHT22;21818;51.078;12.108;2022-11-23T14:39:47;15.80;69.10
35700;DHT22;21818;51.078;12.108;2022-11-23T14:42:20;15.70;69.20
35700;DHT22;21818;51.078;12.108;2022-11-23T14:44:46;15.70;69.80
35700;DHT22;21818;51.078;12.108;2022-11-23T14:47:13;15.60;69.30
35700;DHT22;21818;51.078;12.108;2022-11-23T14:49:49;15.60;69.40
35700;DHT22;21818;51.078;12.108;2022-11-23T14:52:25;15.50;69.40
35700;DHT22;21818;51.078;12.108;2022-11-23T14:54:53;15.40;69.60
35700;DHT22;21818;51.078;12.108;2022-11-23T14:57:23;15.40;69.70
35700;DHT22;21818;51.078;12.108;2022-11-23T14:59:58;15.30;69.80
35700;DHT22;21818;51.078;12.108;2022-11-23T15:02:39;15.20;69.90
35700;DHT22;21818;51.078;12.108;2022-11-23T15:08:00;15.00;70.20
35700;DHT22;21818;51.078;12.108;2022-11-23T15:10:51;14.90;70.30
35700;DHT22;21818;51.078;12.108;2022-11-23T15:13:24;14.90;70.50
35700;DHT22;21818;51.078;12.108;2022-11-23T15:15:53;14.80;70.60
35700;DHT22;21818;51.078;12.108;2022-11-23T15:18:33;14.70;70.70
35700;DHT22;21818;51.078;12.108;2022-11-23T15:23:41;14.70;70.80
35700;DHT22;21818;51.078;12.108;2022-11-23T15:26:31;14.60;70.90
35700;DHT22;21818;51.078;12.108;2022-11-23T15:28:58;14.60;70.80
35700;DHT22;21818;51.078;12.108;2022-11-23T15:31:34;14.60;71.10
35700;DHT22;21818;51.078;12.108;2022-11-23T15:34:12;14.50;71.10
35700;DHT22;21818;51.078;12.108;2022-11-23T15:36:40;14.50;71.10
35700;DHT22;21818;51.078;12.108;2022-11-23T15:39:06;14.40;71.20
35700;DHT22;21818;51.078;12.108;2022-11-23T15:41:39;14.40;71.30
35700;DHT22;21818;51.078;12.108;2022-11-23T15:44:25;14.40;71.40
35700;DHT22;21818;51.078;12.108;2022-11-23T15:46:53;14.30;71.40
35700;DHT22;21818;51.078;12.108;2022-11-23T15:49:19;14.30;71.50
35700;DHT22;21818;51.078;12.108;2022-11-23T15:51:45;14.20;71.60
35700;DHT22;21818;51.078;12.108;2022-11-23T15:54:20;14.20;71.70
35700;DHT22;21818;51.078;12.108;2022-11-23T15:56:48;14.20;71.80
35700;DHT22;21818;51.078;12.108;2022-11-23T16:01:52;14.10;71.90
35700;DHT22;21818;51.078;12.108;2022-11-23T16:06:53;14.00;72.00
35700;DHT22;21818;51.078;12.108;2022-11-23T16:09:34;14.00;72.20
35700;DHT22;21818;51.078;12.108;2022-11-23T16:12:01;13.90;72.20
35700;DHT22;21818;51.078;12.108;2022-11-23T16:14:28;13.90;72.30
35700;DHT22;21818;51.078;12.108;2022-11-23T16:17:13;13.90;72.30
35700;DHT22;21818;51.078;12.108;2022-11-23T16:19:48;13.90;72.40
35700;DHT22;21818;51.078;12.108;2022-11-23T16:25:07;13.80;72.50
35700;DHT22;21818;51.078;12.108;2022-11-23T16:27:40;13.80;72.50
35700;DHT22;21818;51.078;12.108;2022-11-23T16:30:22;13.70;72.60
35700;DHT22;21818;51.078;12.108;2022-11-23T16:32:47;13.70;72.70
35700;DHT22;21818;51.078;12.108;2022-11-23T16:35:18;13.70;72.80
35700;DHT22;21818;51.078;12.108;2022-11-23T16:37:45;13.60;72.70
35700;DHT22;21818;51.078;12.108;2022-11-23T16:40:11;13.60;72.80
35700;DHT22;21818;51.078;12.108;2022-11-23T16:42:38;13.60;72.90
35700;DHT22;21818;51.078;12.108;2022-11-23T16:45:04;13.60;72.90
35700;DHT22;21818;51.078;12.108;2022-11-23T16:47:29;13.60;73.00
35700;DHT22;21818;51.078;12.108;2022-11-23T16:49:55;13.50;72.90
35700;DHT22;21818;51.078;12.108;2022-11-23T16:52:22;13.50;73.00
35700;DHT22;21818;51.078;12.108;2022-11-23T16:54:48;13.50;73.10
35700;DHT22;21818;51.078;12.108;2022-11-23T16:59:42;13.50;73.20
35700;DHT22;21818;51.078;12.108;2022-11-23T17:02:11;13.40;73.30
35700;DHT22;21818;51.078;12.108;2022-11-23T17:04:38;13.40;73.30
35700;DHT22;21818;51.078;12.108;2022-11-23T17:07:04;13.40;73.40
35700;DHT22;21818;51.078;12.108;2022-11-23T17:09:29;13.40;73.40
35700;DHT22;21818;51.078;12.108;2022-11-23T17:11:55;13.40;73.50
35700;DHT22;21818;51.078;12.108;2022-11-23T17:14:20;13.40;73.50
35700;DHT22;21818;51.078;12.108;2022-11-23T17:16:48;13.30;73.50
35700;DHT22;21818;51.078;12.108;2022-11-23T17:19:15;13.30;73.50
35700;DHT22;21818;51.078;12.108;2022-11-23T17:21:42;13.30;73.60
35700;DHT22;21818;51.078;12.108;2022-11-23T17:24:08;13.30;73.60
35700;DHT22;21818;51.078;12.108;2022-11-23T17:26:36;13.30;73.70
35700;DHT22;21818;51.078;12.108;2022-11-23T17:29:05;13.30;73.60
35700;DHT22;21818;51.078;12.108;2022-11-23T17:31:31;13.30;73.60
35700;DHT22;21818;51.078;12.108;2022-11-23T17:33:57;13.30;73.70
35700;DHT22;21818;51.078;12.108;2022-11-23T17:36:24;13.30;73.70
35700;DHT22;21818;51.078;12.108;2022-11-23T17:38:51;13.30;73.70
35700;DHT22;21818;51.078;12.108;2022-11-23T17:41:16;13.30;73.70
35700;DHT22;21818;51.078;12.108;2022-11-23T17:43:42;13.30;73.70
35700;DHT22;21818;51.078;12.108;2022-11-23T17:46:19;13.20;73.70